Carolina, WV (26563)

3:56 PM EDT on April 25, 2017 (GMT -0400)
Pleasant Valley Station | | Change Station

Elev 1047 ft 39.44 °N, 80.17 °W | Updated 36 seconds ago

Overcast
Overcast
65.0 °F
Feels Like 65.0 °F
N
0.0
Wind Variable Wind from NE
Gusts 5.0 mph

Today
High -- | Low -- °F
--% Chance of Precip.
Yesterday
High -- | Low -- °F
Precip. -- in
Pressure 29.76 in
Visibility 10.0 miles
Clouds Overcast 4600 ft
Dew Point 58 °F
Humidity 77%
Rainfall 0.00 in
Snow Depth Not available.
6:29 AM 8:09 PM
Waning Crescent, 1% visible
METAR KCKB 251953Z 06005KT 10SM OVC046 18/11 A2978 RMK AO2 SLP076 T01780111
Pressure 29.76 in
Visibility 10.0 miles
Clouds Overcast 4600 ft
Dew Point 58 °F
Humidity 77%
Rainfall 0.00 in
Snow Depth Not available.
6:29 AM 8:09 PM
Waning Crescent, 1% visible
METAR KCKB 251953Z 06005KT 10SM OVC046 18/11 A2978 RMK AO2 SLP076 T01780111

Get Severe Weather Alerts

Thanks for signing up!

Be on the lookout for a verification email in your inbox.

You'll start receiving the daily forecast at 8 AM.

×

10-Day Weather Forecast

Almanac

Astronomy

Apr. 25, 2017 Rise Set
Actual Time
Civil Twilight
Nautical Twilight
Astronomical Twilight
Moon
Length of Visible Light
Length of Day
Tomorrow will be .
, % of the Moon is Illuminated

Today's Extremes

State Highs State Lows

Community

WunderPhotos

WunderBlog® & News

Nearby

Air Quality

  Air Quality AQ Index Pollutant
Not available.

Snow Depth

Station Depth Elevation

Earthquake Activity

City Distance Mag. Time & Date
Minimum magnitude displayed is 2.5.

Coastal Water Temperatures

Place Temperature

Stations

Nearby Weather Stations

Station Location Temp. Windchill Dew Point Humidity Wind Precip. Elev Updated Type
                   

Watches & Warnings

There are currently no watches in effect.